createdAt,value
2022-09-16T00:01:34.125Z,10.10
2022-09-16T00:06:35.940Z,10.00
2022-09-16T00:11:37.947Z,9.80
2022-09-16T00:16:39.726Z,9.80
2022-09-16T00:21:41.710Z,9.80
2022-09-16T00:26:44.057Z,9.80
2022-09-16T00:31:45.862Z,9.70
2022-09-16T00:36:49.195Z,9.70
2022-09-16T00:41:51.212Z,9.70
2022-09-16T00:46:54.637Z,9.70
2022-09-16T00:52:03.098Z,9.80
2022-09-16T00:57:07.749Z,9.80
2022-09-16T01:02:14.435Z,9.70
2022-09-16T01:07:18.230Z,9.80
2022-09-16T01:12:20.106Z,9.80
2022-09-16T01:17:44.237Z,9.90
2022-09-16T01:23:10.767Z,9.90
2022-09-16T01:28:48.170Z,9.80
2022-09-16T01:34:08.817Z,9.80
2022-09-16T01:39:19.436Z,9.80
2022-09-16T01:44:51.872Z,9.80
2022-09-16T01:50:07.651Z,9.80
2022-09-16T01:55:19.272Z,9.80
2022-09-16T02:00:21.722Z,9.80
2022-09-16T02:05:34.295Z,9.80
2022-09-16T02:10:45.385Z,9.90
2022-09-16T02:15:51.486Z,10.00
2022-09-16T02:20:56.500Z,10.00
2022-09-16T02:25:59.650Z,10.00
2022-09-16T02:31:07.530Z,10.10
2022-09-16T02:36:11.704Z,10.10
2022-09-16T02:41:14.754Z,10.20
2022-09-16T02:46:31.567Z,10.00
2022-09-16T02:51:42.156Z,10.00
2022-09-16T02:56:44.568Z,10.00
2022-09-16T03:01:47.227Z,9.90
2022-09-16T03:06:49.190Z,9.80
2022-09-16T03:12:12.194Z,9.90
2022-09-16T03:17:51.906Z,9.90
2022-09-16T03:23:28.754Z,9.90
2022-09-16T03:28:51.524Z,9.90
2022-09-16T03:34:12.472Z,10.00
2022-09-16T03:39:14.595Z,10.10
2022-09-16T03:44:16.419Z,10.00
2022-09-16T03:49:18.217Z,10.10
2022-09-16T03:54:20.165Z,10.10
2022-09-16T03:59:22.136Z,9.90
2022-09-16T04:04:24.069Z,9.90
2022-09-16T04:09:25.822Z,9.90
2022-09-16T04:14:27.559Z,9.80
2022-09-16T04:19:29.340Z,9.70
2022-09-16T04:24:31.072Z,9.70
2022-09-16T04:29:32.939Z,9.80
2022-09-16T04:34:34.721Z,9.80
2022-09-16T04:39:36.474Z,9.80
2022-09-16T04:44:39.457Z,9.90
2022-09-16T04:49:41.195Z,9.80
2022-09-16T04:54:42.902Z,9.80
2022-09-16T04:59:44.984Z,10.00
2022-09-16T05:04:46.770Z,10.10
2022-09-16T05:09:48.462Z,10.10
2022-09-16T05:14:50.264Z,10.30
2022-09-16T05:19:52.000Z,10.40
2022-09-16T05:24:53.711Z,10.70
2022-09-16T05:29:55.452Z,10.70
2022-09-16T05:34:57.184Z,10.70
2022-09-16T05:39:59.107Z,10.70
2022-09-16T05:45:00.895Z,10.90
2022-09-16T05:50:02.753Z,11.10
2022-09-16T05:55:04.884Z,11.50
2022-09-16T06:00:07.462Z,11.80
2022-09-16T06:05:09.585Z,11.90
2022-09-16T06:10:11.381Z,11.60
2022-09-16T06:15:13.406Z,11.60
2022-09-16T06:20:16.150Z,11.80
2022-09-16T06:25:18.013Z,11.90
2022-09-16T06:30:19.852Z,12.20
2022-09-16T06:35:21.630Z,13.70
2022-09-16T06:40:23.373Z,15.90
2022-09-16T06:45:25.367Z,18.60
2022-09-16T06:50:27.123Z,20.00
2022-09-16T06:55:28.883Z,21.30
2022-09-16T07:00:30.863Z,23.40
2022-09-16T07:05:32.704Z,22.30
2022-09-16T07:10:34.414Z,20.10
2022-09-16T07:15:50.949Z,17.90
2022-09-16T07:21:05.719Z,17.20
2022-09-16T07:26:19.051Z,17.30
2022-09-16T07:31:28.204Z,17.10
2022-09-16T07:36:37.882Z,20.80
2022-09-16T07:41:41.662Z,21.40
2022-09-16T07:46:43.608Z,22.60
2022-09-16T07:51:45.828Z,23.00
2022-09-16T07:56:47.807Z,22.10
2022-09-16T08:01:50.432Z,20.10
2022-09-16T08:06:52.356Z,21.70
2022-09-16T08:11:54.224Z,22.60
2022-09-16T08:16:56.011Z,24.40
2022-09-16T08:21:57.788Z,20.20
2022-09-16T08:26:59.674Z,18.60
2022-09-16T08:32:01.783Z,17.90
2022-09-16T08:37:03.606Z,18.00
2022-09-16T08:42:27.598Z,16.90
2022-09-16T08:47:44.333Z,16.80
2022-09-16T08:52:47.423Z,16.60
2022-09-16T08:58:09.462Z,15.90
2022-09-16T09:03:36.094Z,17.40
2022-09-16T09:08:51.225Z,21.20
2022-09-16T09:14:18.263Z,20.60
2022-09-16T09:19:38.730Z,19.70
2022-09-16T09:24:59.187Z,18.70
2022-09-16T09:30:27.854Z,18.20
2022-09-16T09:35:54.448Z,17.10
2022-09-16T09:41:14.652Z,17.60
2022-09-16T09:46:31.838Z,17.30
2022-09-16T09:51:38.995Z,16.90
2022-09-16T09:56:45.595Z,20.30
2022-09-16T10:01:47.441Z,19.80
2022-09-16T10:06:51.664Z,19.90
2022-09-16T10:11:56.030Z,18.80
2022-09-16T10:17:06.778Z,18.00
2022-09-16T10:22:25.570Z,17.70
2022-09-16T10:27:29.965Z,16.90
2022-09-16T10:33:00.537Z,17.00
2022-09-16T10:38:12.587Z,17.10
2022-09-16T10:43:16.147Z,17.20
2022-09-16T10:48:24.689Z,17.00
2022-09-16T10:53:39.650Z,17.10
2022-09-16T10:58:45.124Z,17.40
2022-09-16T11:04:11.051Z,16.70
2022-09-16T11:09:27.915Z,17.00
2022-09-16T11:14:51.977Z,17.20
2022-09-16T11:20:35.420Z,16.40
2022-09-16T11:26:00.151Z,16.40
2022-09-16T11:31:23.622Z,16.20
2022-09-16T11:36:51.806Z,15.80
2022-09-16T11:42:12.406Z,15.30
2022-09-16T11:47:42.895Z,15.40
2022-09-16T11:52:47.905Z,15.70
2022-09-16T11:58:10.232Z,15.60
2022-09-16T12:03:44.978Z,15.90
2022-09-16T12:09:12.115Z,16.00
2022-09-16T12:14:36.266Z,15.60
2022-09-16T12:19:53.435Z,15.60
2022-09-16T12:25:42.067Z,15.50
2022-09-16T12:30:53.763Z,15.60
2022-09-16T12:35:59.974Z,15.70
2022-09-16T12:41:22.305Z,15.90
2022-09-16T12:46:35.072Z,16.10
2022-09-16T12:52:14.672Z,15.70
2022-09-16T12:57:37.739Z,15.80
2022-09-16T13:02:53.101Z,16.10
2022-09-16T13:07:58.476Z,16.10
2022-09-16T13:13:02.681Z,15.70
2022-09-16T13:18:19.270Z,15.40
2022-09-16T13:23:34.130Z,15.40
2022-09-16T13:28:39.334Z,14.10
2022-09-16T13:33:47.183Z,12.80
2022-09-16T13:38:53.957Z,12.30
2022-09-16T13:43:55.751Z,12.00
2022-09-16T13:49:10.931Z,12.00
2022-09-16T13:55:06.295Z,12.30
2022-09-16T14:00:22.317Z,13.00
2022-09-16T14:05:56.867Z,13.30
2022-09-16T14:11:31.310Z,13.40
2022-09-16T14:16:35.442Z,13.30
2022-09-16T14:21:38.886Z,13.20
2022-09-16T14:26:53.471Z,13.30
2022-09-16T14:31:56.779Z,13.50
2022-09-16T14:36:58.730Z,13.30
2022-09-16T14:42:04.980Z,13.20
2022-09-16T14:47:31.122Z,13.20
2022-09-16T14:53:16.075Z,13.20
2022-09-16T14:58:18.533Z,13.00
2022-09-16T15:03:27.603Z,12.90
2022-09-16T15:08:35.613Z,12.80
2022-09-16T15:13:39.031Z,12.80
2022-09-16T15:19:01.947Z,12.90
2022-09-16T15:24:06.847Z,12.90
2022-09-16T15:29:17.867Z,12.90
2022-09-16T15:34:22.548Z,12.90
2022-09-16T15:39:39.001Z,12.90
2022-09-16T15:45:01.355Z,13.00
2022-09-16T15:50:12.266Z,13.00
2022-09-16T15:55:24.553Z,13.00
2022-09-16T16:00:26.346Z,12.90
2022-09-16T16:05:31.169Z,12.90
2022-09-16T16:10:36.264Z,12.80
2022-09-16T16:15:40.030Z,12.70
2022-09-16T16:20:41.998Z,12.60
2022-09-16T16:25:43.744Z,12.60
2022-09-16T16:30:45.513Z,12.50
2022-09-16T16:35:47.228Z,12.50
2022-09-16T16:40:52.331Z,12.40
2022-09-16T16:45:56.582Z,12.40
2022-09-16T16:51:00.920Z,12.30
2022-09-16T16:56:14.873Z,12.30
2022-09-16T17:01:19.495Z,12.30
2022-09-16T17:06:21.361Z,12.30
2022-09-16T17:11:23.657Z,12.30
2022-09-16T17:16:25.883Z,12.30
2022-09-16T17:21:30.076Z,12.30
2022-09-16T17:26:32.021Z,12.20
2022-09-16T17:31:34.750Z,12.20
2022-09-16T17:36:39.526Z,12.20
2022-09-16T17:41:43.560Z,12.20
2022-09-16T17:46:46.208Z,12.20
2022-09-16T17:51:48.376Z,12.20
2022-09-16T17:56:50.668Z,12.20
2022-09-16T18:01:52.517Z,12.20
2022-09-16T18:06:54.252Z,12.10
2022-09-16T18:11:58.344Z,12.10
2022-09-16T18:17:00.449Z,12.10
2022-09-16T18:22:02.408Z,12.00
2022-09-16T18:27:04.242Z,12.00
2022-09-16T18:32:08.113Z,12.00
2022-09-16T18:37:10.082Z,11.90
2022-09-16T18:42:11.837Z,11.90
2022-09-16T18:47:13.583Z,11.70
2022-09-16T18:52:15.396Z,11.70
2022-09-16T18:57:17.663Z,11.80
2022-09-16T19:02:19.505Z,11.80
2022-09-16T19:07:27.484Z,11.80
2022-09-16T19:12:29.853Z,11.80
2022-09-16T19:17:31.599Z,11.80
2022-09-16T19:22:33.557Z,11.70
2022-09-16T19:27:35.492Z,11.70
2022-09-16T19:32:37.346Z,11.70
2022-09-16T19:37:39.075Z,11.70
2022-09-16T19:42:40.834Z,11.70
2022-09-16T19:47:42.816Z,11.70
2022-09-16T19:52:44.574Z,11.70
2022-09-16T19:57:46.763Z,11.80
2022-09-16T20:02:48.650Z,11.80
2022-09-16T20:07:50.461Z,11.70
2022-09-16T20:12:58.605Z,11.80
2022-09-16T20:18:01.108Z,11.70
2022-09-16T20:23:02.824Z,11.70
2022-09-16T20:28:11.069Z,11.70
2022-09-16T20:33:12.818Z,11.70
2022-09-16T20:38:14.560Z,11.60
2022-09-16T20:43:16.351Z,11.50
2022-09-16T20:48:18.073Z,11.50
2022-09-16T20:53:19.788Z,11.60
2022-09-16T20:58:21.525Z,11.60
2022-09-16T21:03:23.443Z,11.70
2022-09-16T21:08:25.213Z,11.60
2022-09-16T21:13:27.735Z,11.70
2022-09-16T21:18:30.494Z,11.70
2022-09-16T21:23:33.905Z,11.70
2022-09-16T21:28:35.952Z,11.70
2022-09-16T21:33:38.192Z,11.70
2022-09-16T21:38:41.256Z,11.70
2022-09-16T21:43:49.560Z,11.70
2022-09-16T21:48:53.072Z,11.70
2022-09-16T21:53:55.312Z,11.70
2022-09-16T21:58:58.372Z,11.70
2022-09-16T22:04:01.542Z,11.70
2022-09-16T22:09:07.658Z,11.60
2022-09-16T22:14:11.120Z,11.70
2022-09-16T22:19:18.470Z,11.60
2022-09-16T22:24:21.436Z,11.60
2022-09-16T22:29:24.141Z,11.60
2022-09-16T22:34:25.892Z,11.60
2022-09-16T22:39:27.678Z,11.60
2022-09-16T22:44:29.478Z,11.60
2022-09-16T22:49:31.221Z,11.70
2022-09-16T22:54:33.035Z,11.70
2022-09-16T22:59:34.756Z,11.70
2022-09-16T23:04:36.560Z,11.70
2022-09-16T23:09:38.274Z,11.70
2022-09-16T23:14:40.011Z,11.70
2022-09-16T23:19:41.742Z,11.60
2022-09-16T23:24:43.517Z,11.60
2022-09-16T23:29:45.208Z,11.60
2022-09-16T23:34:46.916Z,11.60
2022-09-16T23:39:48.711Z,11.60
2022-09-16T23:44:50.534Z,11.60
2022-09-16T23:49:53.257Z,11.50
2022-09-16T23:54:55.128Z,11.60
2022-09-16T23:59:56.866Z,11.60
